Mabel, North Carolina
Current Conditions -  °F | °C
As of 2:35 AM on Wednesday 22 Oct 2014 (Local Time) from KTNB Reporting Station
Overcast Overcast  
Wind Chill: 35°   Ceiling: 2100
Heat Index: 42°   Visibility: 10mi
Dew Point: 33°   Wind: 12mph
Humidity: 72%   Direction: 310°NW
Pressure: 30.01"   Gusts: 16mph
Location:  36.3301°N, 81.7398°W
Report Text: KTNB 220635Z AUTO 31010G14KT 10SM OVC021 06/01 A3001 RMK AO2 T00550008
Loading
Personal Weather Stations






























Interactive Weather Map
Tropical Storm Tracking
New forecast layout! Learn more

10-Day Weather Forecast

Advertisements
Track Severe Weather on mobile